Time;durP1;ratioP1;P1;durP2;ratioP2;P2;SDS_P1;SDS_P2;PMS_P1;PMS_P2;Temp;Humidity;BMP_temperature;BMP_pressure;BME280_temperature;BME280_humidity;BME280_pressure;Samples;Min_cycle;Max_cycle;Signal;HPM_P1;HPM_P2
2021/06/10 00:00:48;;;;;;;9.60;8.70;;;19.40;99.90;;;;;;5056424;28;20697;-73
2021/06/10 00:03:14;;;;;;;8.00;7.33;;;19.40;99.90;;;;;;5061481;28;20194;-73
2021/06/10 00:05:39;;;;;;;8.00;7.50;;;19.40;99.90;;;;;;5064907;28;20468;-73
2021/06/10 00:08:07;;;;;;;8.60;7.90;;;19.40;99.90;;;;;;5059967;28;20416;-73
2021/06/10 00:10:33;;;;;;;8.07;7.30;;;19.40;99.90;;;;;;5055929;28;20162;-73
2021/06/10 00:12:59;;;;;;;8.63;7.82;;;19.40;99.90;;;;;;5055142;28;20927;-73
2021/06/10 00:15:27;;;;;;;10.47;7.53;;;19.30;99.90;;;;;;5073882;28;20233;-75
2021/06/10 00:17:53;;;;;;;7.63;6.93;;;19.20;99.90;;;;;;5073648;28;20182;-73
2021/06/10 00:20:22;;;;;;;7.70;7.10;;;19.10;99.90;;;;;;5055352;28;20837;-73
2021/06/10 00:22:48;;;;;;;7.60;6.90;;;19.10;99.90;;;;;;5053870;28;20793;-73
2021/06/10 00:25:13;;;;;;;7.47;6.87;;;19.10;99.90;;;;;;5054423;28;20439;-73
2021/06/10 00:27:39;;;;;;;7.40;6.80;;;19.20;99.90;;;;;;5055157;28;20185;-73
2021/06/10 00:30:08;;;;;;;7.07;6.57;;;19.10;99.90;;;;;;5053754;28;20537;-73
2021/06/10 00:32:33;;;;;;;7.27;6.60;;;19.00;99.90;;;;;;5054644;28;20790;-73
2021/06/10 00:34:59;;;;;;;7.00;6.40;;;18.90;99.90;;;;;;5055510;28;20437;-73
2021/06/10 00:37:25;;;;;;;7.97;7.20;;;18.80;99.90;;;;;;5054962;28;20263;-73
2021/06/10 00:39:50;;;;;;;7.67;6.97;;;18.70;99.90;;;;;;5077534;28;20413;-74
2021/06/10 00:42:16;;;;;;;8.33;7.40;;;18.70;99.90;;;;;;5069553;28;20278;-73
2021/06/10 00:44:42;;;;;;;7.70;7.00;;;18.70;99.90;;;;;;5055171;28;20209;-73
2021/06/10 00:47:07;;;;;;;8.10;7.30;;;18.60;99.90;;;;;;5054653;28;20539;-73
2021/06/10 00:49:33;;;;;;;7.33;6.63;;;18.60;99.90;;;;;;5055406;28;20171;-73
2021/06/10 00:51:58;;;;;;;7.77;7.07;;;18.60;99.90;;;;;;5054543;28;20166;-73
2021/06/10 00:54:26;;;;;;;7.60;6.90;;;18.60;99.90;;;;;;5054080;28;20185;-73
2021/06/10 00:56:52;;;;;;;7.00;6.27;;;18.70;99.90;;;;;;5053411;28;20174;-73
2021/06/10 00:59:18;;;;;;;8.10;7.40;;;18.70;99.90;;;;;;5054164;28;20440;-73
2021/06/10 01:01:43;;;;;;;7.43;6.83;;;18.70;99.90;;;;;;5054616;28;20747;-73
2021/06/10 01:04:09;;;;;;;7.93;7.20;;;18.60;99.90;;;;;;5054442;28;20218;-73
2021/06/10 01:06:56;;;;;;;8.97;8.10;;;18.60;99.90;;;;;;5054634;28;20648;-73
2021/06/10 01:09:41;;;;;;;9.13;8.23;;;18.50;99.90;;;;;;5054236;28;20667;-73
2021/06/10 01:12:21;;;;;;;8.60;7.80;;;18.40;99.90;;;;;;5053908;28;20421;-73
2021/06/10 01:15:00;;;;;;;9.47;8.50;;;18.30;99.90;;;;;;5053964;28;20416;-73
2021/06/10 01:17:29;;;;;;;8.40;7.60;;;18.30;99.90;;;;;;5053863;28;20420;-74
2021/06/10 01:20:00;;;;;;;9.00;8.10;;;18.30;99.90;;;;;;5054534;28;20495;-74
2021/06/10 01:22:25;;;;;;;8.10;7.40;;;18.20;99.90;;;;;;5053416;28;20413;-75
2021/06/10 01:25:05;;;;;;;7.70;7.00;;;18.20;99.90;;;;;;5053984;28;20470;-74
2021/06/10 01:27:34;;;;;;;9.47;7.83;;;18.20;99.90;;;;;;5054037;28;20181;-74
2021/06/10 01:30:08;;;;;;;9.43;8.07;;;18.20;99.90;;;;;;5054267;28;20444;-74
2021/06/10 01:32:38;;;;;;;8.80;7.90;;;18.20;99.90;;;;;;5053423;28;20428;-73
2021/06/10 01:35:06;;;;;;;8.40;7.60;;;18.30;99.90;;;;;;5053848;28;20845;-73
2021/06/10 01:37:32;;;;;;;9.33;8.47;;;18.40;99.90;;;;;;5054040;28;20401;-73
2021/06/10 01:40:00;;;;;;;9.10;8.30;;;18.40;99.90;;;;;;5054015;28;20444;-74
2021/06/10 01:42:27;;;;;;;9.00;8.20;;;18.50;99.90;;;;;;5052963;28;20444;-74
2021/06/10 01:44:54;;;;;;;9.50;8.43;;;18.50;99.90;;;;;;5054124;28;20464;-74
2021/06/10 01:47:21;;;;;;;8.77;8.07;;;18.40;99.90;;;;;;5053805;28;20427;-74
2021/06/10 01:49:49;;;;;;;10.17;9.27;;;18.30;99.90;;;;;;5054027;28;20412;-74
2021/06/10 01:52:15;;;;;;;8.97;8.27;;;18.30;99.90;;;;;;5053588;28;20952;-73
2021/06/10 01:54:41;;;;;;;9.03;8.23;;;18.30;99.90;;;;;;5053562;28;20456;-74
2021/06/10 01:57:08;;;;;;;9.47;8.70;;;18.30;99.90;;;;;;5053559;28;20770;-74
2021/06/10 01:59:35;;;;;;;9.00;8.30;;;18.30;99.90;;;;;;5053699;28;20182;-74
2021/06/10 02:02:03;;;;;;;10.83;9.00;;;18.30;99.90;;;;;;5052228;28;20452;-75
2021/06/10 02:04:30;;;;;;;11.13;10.00;;;18.20;99.90;;;;;;5052591;28;20456;-74
2021/06/10 02:06:56;;;;;;;9.67;8.77;;;18.10;99.90;;;;;;5053441;28;20444;-75
2021/06/10 02:09:22;;;;;;;11.50;10.50;;;18.00;99.90;;;;;;5053600;28;20420;-74
2021/06/10 02:11:49;;;;;;;10.83;9.83;;;17.90;99.90;;;;;;5054971;28;20455;-73
2021/06/10 02:14:19;;;;;;;12.10;10.90;;;17.80;99.90;;;;;;5054289;28;20956;-73
2021/06/10 02:16:46;;;;;;;11.30;10.20;;;17.80;99.90;;;;;;5053182;28;20190;-73
2021/06/10 02:19:12;;;;;;;13.80;12.23;;;17.70;99.90;;;;;;5053506;28;20408;-73
2021/06/10 02:21:38;;;;;;;10.87;9.87;;;17.70;99.90;;;;;;5053552;28;20409;-73
2021/06/10 02:24:04;;;;;;;9.97;9.10;;;17.70;99.90;;;;;;5052981;28;20540;-73
2021/06/10 02:26:30;;;;;;;11.83;10.67;;;17.70;99.90;;;;;;5053808;28;20210;-73
2021/06/10 02:28:56;;;;;;;10.77;9.77;;;17.70;99.90;;;;;;5053601;28;20957;-73
2021/06/10 02:31:22;;;;;;;12.47;11.27;;;17.70;99.90;;;;;;5053136;28;20631;-73
2021/06/10 02:33:48;;;;;;;11.23;10.33;;;17.70;99.90;;;;;;5053183;28;20511;-72
2021/06/10 02:36:16;;;;;;;11.30;9.80;;;17.60;99.90;;;;;;5057370;28;20625;-73
2021/06/10 02:38:48;;;;;;;13.47;12.17;;;17.70;99.90;;;;;;5057068;28;20918;-73
2021/06/10 02:41:15;;;;;;;12.80;11.60;;;17.70;99.90;;;;;;5056561;28;20411;-73
2021/06/10 02:43:42;;;;;;;13.37;11.97;;;17.70;99.90;;;;;;5056501;28;20484;-72
2021/06/10 02:46:10;;;;;;;13.10;11.77;;;17.70;99.90;;;;;;5055637;28;20441;-72
2021/06/10 02:48:37;;;;;;;11.90;10.90;;;17.70;99.90;;;;;;5057373;28;20412;-73
2021/06/10 02:51:04;;;;;;;12.73;11.47;;;17.80;99.90;;;;;;5059659;28;20415;-73
2021/06/10 02:53:32;;;;;;;12.33;11.33;;;17.70;99.90;;;;;;5059292;28;20427;-73
2021/06/10 02:56:01;;;;;;;13.10;11.70;;;17.70;99.90;;;;;;5059668;28;20424;-73
2021/06/10 02:58:28;;;;;;;13.63;12.40;;;17.70;99.90;;;;;;5059427;28;20432;-73
2021/06/10 03:00:55;;;;;;;13.77;12.47;;;17.60;99.90;;;;;;5057466;28;20926;-73
2021/06/10 03:03:21;;;;;;;13.40;12.30;;;17.50;99.90;;;;;;5055846;28;20440;-73
2021/06/10 03:05:48;;;;;;;14.10;12.83;;;17.50;99.90;;;;;;5056618;28;20190;-73
2021/06/10 03:08:17;;;;;;;13.57;12.37;;;17.50;99.90;;;;;;5057079;28;20416;-73
2021/06/10 03:10:44;;;;;;;15.93;14.40;;;17.50;99.90;;;;;;5056833;28;20413;-73
2021/06/10 03:13:12;;;;;;;15.27;13.77;;;17.50;99.90;;;;;;5056301;28;20409;-73
2021/06/10 03:15:39;;;;;;;15.37;13.93;;;17.50;99.90;;;;;;5053964;28;20440;-73
2021/06/10 03:18:05;;;;;;;15.43;14.03;;;17.50;99.90;;;;;;5056230;28;20452;-73
2021/06/10 03:20:32;;;;;;;15.00;13.70;;;17.50;99.90;;;;;;5056367;28;20955;-73
2021/06/10 03:22:59;;;;;;;16.37;14.93;;;17.40;99.90;;;;;;5056502;28;20770;-73
2021/06/10 03:25:26;;;;;;;15.10;13.80;;;17.40;99.90;;;;;;5056980;28;20445;-71
2021/06/10 03:27:51;;;;;;;16.63;15.10;;;17.30;99.90;;;;;;5080738;28;20412;-73
2021/06/10 03:30:18;;;;;;;17.83;16.03;;;17.30;99.90;;;;;;5067006;28;20483;-73
2021/06/10 03:32:44;;;;;;;17.17;15.37;;;17.20;99.90;;;;;;5056391;28;20162;-73
2021/06/10 03:35:11;;;;;;;16.83;15.13;;;17.30;99.90;;;;;;5056224;28;20444;-73
2021/06/10 03:37:38;;;;;;;18.30;16.40;;;17.20;99.90;;;;;;5055884;28;20745;-73
2021/06/10 03:40:06;;;;;;;17.33;15.73;;;17.20;99.90;;;;;;5056812;28;20416;-73
2021/06/10 03:42:32;;;;;;;17.13;15.63;;;17.10;99.90;;;;;;5056495;28;20570;-73
2021/06/10 03:44:58;;;;;;;18.38;16.67;;;17.10;99.90;;;;;;5055674;28;20476;-74
2021/06/10 03:47:25;;;;;;;17.43;15.87;;;17.10;99.90;;;;;;5057614;28;20177;-73
2021/06/10 03:49:50;;;;;;;17.03;15.53;;;17.20;99.90;;;;;;5063819;28;20415;-74
2021/06/10 03:52:16;;;;;;;16.70;14.97;;;17.20;99.90;;;;;;5062778;28;20891;-74
2021/06/10 03:54:42;;;;;;;18.20;16.33;;;17.20;99.90;;;;;;5042444;28;20198;-74
2021/06/10 03:57:09;;;;;;;20.00;18.20;;;17.20;99.90;;;;;;5048685;28;20222;-75
2021/06/10 03:59:34;;;;;;;24.57;20.97;;;17.20;99.90;;;;;;5045932;28;20309;-74
2021/06/10 04:02:00;;;;;;;20.37;18.37;;;17.20;99.90;;;;;;5049840;28;20926;-72
2021/06/10 04:04:27;;;;;;;18.40;16.70;;;17.20;99.90;;;;;;5038336;28;20203;-73
2021/06/10 04:06:53;;;;;;;18.37;16.77;;;17.20;99.90;;;;;;5046800;28;20284;-73
2021/06/10 04:09:19;;;;;;;19.47;17.47;;;17.20;99.90;;;;;;5057675;28;20435;-73
2021/06/10 04:11:45;;;;;;;19.00;17.23;;;17.20;99.90;;;;;;5045333;28;20193;-74
2021/06/10 04:14:11;;;;;;;21.60;19.60;;;17.20;99.90;;;;;;5046163;28;20436;-73
2021/06/10 04:16:36;;;;;;;20.00;18.10;;;17.20;99.90;;;;;;5046964;28;20205;-73
2021/06/10 04:19:02;;;;;;;21.38;19.08;;;17.20;99.90;;;;;;5037813;28;20421;-73
2021/06/10 04:21:27;;;;;;;19.90;18.10;;;17.20;99.90;;;;;;5051155;28;20206;-73
2021/06/10 04:23:53;;;;;;;20.23;18.10;;;17.20;99.90;;;;;;5050829;28;20195;-74
2021/06/10 04:26:19;;;;;;;20.30;18.47;;;17.20;99.90;;;;;;5045678;28;20202;-74
2021/06/10 04:28:46;;;;;;;21.90;19.90;;;17.10;99.90;;;;;;5044521;28;20182;-74
2021/06/10 04:31:16;;;;;;;22.90;20.50;;;17.20;99.90;;;;;;5038499;28;20440;-74
2021/06/10 04:33:42;;;;;;;26.03;23.53;;;17.20;99.90;;;;;;5046395;28;20431;-74
2021/06/10 04:36:10;;;;;;;20.90;18.83;;;17.30;99.90;;;;;;5043952;28;20440;-74
2021/06/10 04:38:36;;;;;;;23.53;21.23;;;17.30;99.90;;;;;;5047120;28;20864;-74
2021/06/10 04:41:02;;;;;;;23.60;21.17;;;17.30;99.90;;;;;;5046945;28;20441;-74
2021/06/10 04:43:28;;;;;;;25.30;22.90;;;17.40;99.90;;;;;;5044803;28;20793;-72
2021/06/10 04:45:53;;;;;;;24.00;21.70;;;17.50;99.90;;;;;;5041689;28;20194;-73
2021/06/10 04:48:19;;;;;;;26.53;23.73;;;17.50;99.90;;;;;;5043921;28;20167;-73
2021/06/10 04:50:45;;;;;;;27.53;23.80;;;17.60;99.90;;;;;;5044350;28;20237;-72
2021/06/10 04:53:10;;;;;;;27.90;25.00;;;17.70;99.90;;;;;;5045013;28;20217;-73
2021/06/10 04:55:37;;;;;;;29.77;26.77;;;17.80;99.90;;;;;;5042185;28;20822;-75
2021/06/10 04:58:03;;;;;;;28.20;25.40;;;17.80;99.90;;;;;;5042060;28;20958;-73
2021/06/10 05:00:29;;;;;;;26.43;23.70;;;17.90;99.90;;;;;;5041523;28;20455;-74
2021/06/10 05:02:58;;;;;;;25.87;23.47;;;17.90;99.90;;;;;;5054326;28;20170;-73
2021/06/10 05:05:24;;;;;;;26.37;23.30;;;18.00;99.90;;;;;;5054577;28;20436;-73
2021/06/10 05:07:49;;;;;;;25.20;22.50;;;18.00;99.90;;;;;;5054303;28;20922;-73
2021/06/10 05:10:15;;;;;;;27.23;24.52;;;18.00;99.90;;;;;;5045362;28;20425;-74
2021/06/10 05:12:41;;;;;;;25.77;23.37;;;18.10;99.90;;;;;;5039778;28;20175;-75
2021/06/10 05:15:07;;;;;;;24.73;22.43;;;18.10;99.90;;;;;;5053906;28;20561;-75
2021/06/10 05:17:32;;;;;;;24.13;21.90;;;18.10;99.90;;;;;;5068048;28;20178;-74
2021/06/10 05:19:58;;;;;;;24.57;22.17;;;18.20;99.90;;;;;;5064020;28;20416;-73
2021/06/10 05:22:24;;;;;;;24.20;21.90;;;18.20;99.90;;;;;;5059332;28;20205;-73
2021/06/10 05:24:49;;;;;;;25.20;22.77;;;18.30;99.90;;;;;;5064661;28;20224;-73
2021/06/10 05:27:15;;;;;;;26.47;23.93;;;18.30;99.90;;;;;;5072854;28;20178;-74
2021/06/10 05:29:40;;;;;;;24.37;21.97;;;18.40;99.90;;;;;;5067086;28;20177;-74
2021/06/10 05:32:06;;;;;;;25.37;23.07;;;18.40;99.90;;;;;;5067926;28;20646;-74
2021/06/10 05:34:32;;;;;;;25.13;22.83;;;18.40;99.90;;;;;;5062993;28;20177;-74
2021/06/10 05:36:58;;;;;;;25.10;22.70;;;18.50;99.90;;;;;;5073176;28;20412;-75
2021/06/10 05:39:23;;;;;;;29.33;26.50;;;18.50;99.90;;;;;;5065733;28;20231;-74
2021/06/10 05:41:49;;;;;;;29.80;27.03;;;18.60;99.90;;;;;;5068749;28;20184;-73
2021/06/10 05:44:14;;;;;;;29.90;26.83;;;18.60;99.90;;;;;;5041309;28;20196;-73
2021/06/10 05:46:40;;;;;;;29.90;26.90;;;18.60;99.90;;;;;;5073394;28;20647;-72
2021/06/10 05:49:06;;;;;;;29.73;26.70;;;18.60;99.90;;;;;;5065340;28;20224;-73
2021/06/10 05:51:32;;;;;;;29.07;26.27;;;18.70;99.90;;;;;;5084949;28;20400;-73
2021/06/10 05:53:57;;;;;;;28.83;26.03;;;18.70;99.90;;;;;;5072480;28;20224;-73
2021/06/10 05:56:23;;;;;;;28.47;25.43;;;18.80;99.90;;;;;;5065353;28;20547;-73
2021/06/10 05:58:48;;;;;;;28.63;25.83;;;18.90;99.90;;;;;;5061886;28;20239;-73
2021/06/10 06:01:14;;;;;;;29.17;26.37;;;18.90;99.90;;;;;;5063881;28;20187;-73
2021/06/10 06:03:41;;;;;;;29.13;26.40;;;19.00;99.90;;;;;;5073354;28;20238;-72
2021/06/10 06:06:07;;;;;;;29.17;26.53;;;19.10;99.90;;;;;;5073094;28;20304;-73
2021/06/10 06:08:32;;;;;;;30.63;27.73;;;19.20;99.90;;;;;;5070873;28;20482;-72
2021/06/10 06:10:58;;;;;;;30.37;27.40;;;19.20;99.90;;;;;;5070783;28;20177;-73
2021/06/10 06:16:08;;;;;;;29.40;26.70;;;19.40;99.90;;;;;;5078457;28;20254;-73
2021/06/10 06:18:34;;;;;;;30.23;27.13;;;19.50;99.90;;;;;;5078913;28;20407;-74
2021/06/10 06:21:00;;;;;;;32.50;29.27;;;19.50;99.90;;;;;;5074614;28;20481;-73
2021/06/10 06:23:26;;;;;;;30.27;27.40;;;19.60;99.90;;;;;;5078475;28;20276;-73
2021/06/10 06:25:51;;;;;;;27.40;24.70;;;19.60;99.90;;;;;;5077762;28;20612;-73
2021/06/10 06:28:17;;;;;;;29.53;26.70;;;19.70;99.90;;;;;;5077682;28;20447;-73
2021/06/10 06:30:42;;;;;;;27.50;24.97;;;19.80;99.90;;;;;;5062121;28;20564;-74
2021/06/10 06:33:08;;;;;;;22.73;20.50;;;19.90;99.90;;;;;;5052101;28;20178;-74
2021/06/10 06:35:33;;;;;;;25.70;23.10;;;20.00;99.90;;;;;;5064021;28;20218;-73
2021/06/10 06:37:59;;;;;;;21.77;19.60;;;20.10;99.90;;;;;;5075755;28;20174;-73
2021/06/10 06:40:26;;;;;;;24.57;21.63;;;20.20;99.90;;;;;;5085140;28;20188;-74
2021/06/10 06:42:52;;;;;;;23.37;21.17;;;20.30;99.90;;;;;;5079056;28;20539;-73
2021/06/10 06:45:18;;;;;;;22.07;19.77;;;20.40;99.90;;;;;;5066058;28;20455;-73
2021/06/10 06:47:43;;;;;;;23.37;21.13;;;20.40;99.90;;;;;;5048531;28;20433;-73
2021/06/10 06:50:10;;;;;;;22.30;20.10;;;20.50;99.90;;;;;;5076309;28;20538;-73
2021/06/10 06:52:35;;;;;;;19.57;17.57;;;20.60;99.90;;;;;;5071114;28;20185;-74
2021/06/10 06:55:01;;;;;;;16.67;14.97;;;20.60;99.90;;;;;;5051141;28;20461;-74
2021/06/10 06:57:26;;;;;;;15.23;13.67;;;20.70;99.90;;;;;;5062989;28;20180;-73
2021/06/10 06:59:52;;;;;;;14.63;11.40;;;20.80;99.40;;;;;;5047928;28;20534;-74
2021/06/10 07:02:17;;;;;;;12.33;10.87;;;20.90;98.50;;;;;;5052565;28;20216;-74
2021/06/10 07:04:43;;;;;;;11.93;10.60;;;21.00;97.90;;;;;;5097262;28;20223;-74
2021/06/10 07:07:08;;;;;;;10.87;9.77;;;21.00;97.50;;;;;;5091951;28;20178;-73
2021/06/10 07:09:34;;;;;;;10.80;9.80;;;21.10;97.50;;;;;;5058773;28;20201;-74
2021/06/10 07:12:00;;;;;;;11.47;10.47;;;21.20;97.20;;;;;;5064739;28;20178;-74
2021/06/10 07:14:25;;;;;;;13.27;11.87;;;21.30;97.90;;;;;;5075327;28;20182;-74
2021/06/10 07:16:51;;;;;;;12.20;11.00;;;21.40;97.30;;;;;;5063092;28;20427;-73
2021/06/10 07:19:16;;;;;;;12.10;11.00;;;21.50;97.00;;;;;;5057793;28;20198;-73
2021/06/10 07:21:50;;;;;;;10.97;9.93;;;21.50;97.00;;;;;;5051954;28;20185;-74
2021/06/10 07:24:17;;;;;;;12.57;9.27;;;21.60;96.50;;;;;;5057731;28;20189;-73
2021/06/10 07:26:44;;;;;;;10.53;9.63;;;21.70;95.90;;;;;;5074305;28;20427;-73
2021/06/10 07:29:11;;;;;;;8.90;8.10;;;21.80;96.00;;;;;;5075516;28;20415;-73
2021/06/10 07:31:36;;;;;;;9.00;8.20;;;21.90;95.90;;;;;;5075007;28;20916;-73
2021/06/10 07:34:04;;;;;;;8.07;7.37;;;22.00;95.90;;;;;;5058872;28;20436;-73
2021/06/10 07:36:31;;;;;;;7.47;6.77;;;22.10;96.40;;;;;;5075973;28;20593;-74
2021/06/10 07:38:56;;;;;;;7.03;6.03;;;22.20;95.30;;;;;;5074114;28;20490;-74
2021/06/10 07:41:22;;;;;;;7.67;6.17;;;22.30;95.10;;;;;;5076180;28;20426;-73
2021/06/10 07:43:48;;;;;;;7.20;6.37;;;22.40;94.80;;;;;;5065563;28;20201;-73
2021/06/10 07:46:14;;;;;;;7.20;6.40;;;22.50;94.40;;;;;;5075109;28;20643;-73
2021/06/10 07:48:39;;;;;;;7.57;6.00;;;22.60;94.20;;;;;;5076077;28;20178;-73
2021/06/10 07:51:06;;;;;;;6.07;5.47;;;22.60;93.60;;;;;;5075602;28;20435;-73
2021/06/10 07:53:34;;;;;;;6.00;5.43;;;22.70;94.20;;;;;;5049046;28;20201;-73
2021/06/10 07:55:59;;;;;;;5.20;4.80;;;22.80;94.90;;;;;;5051782;28;20781;-73
2021/06/10 07:58:28;;;;;;;6.70;6.10;;;22.90;94.70;;;;;;5064003;28;20204;-74
2021/06/10 08:00:53;;;;;;;6.23;5.63;;;23.00;94.30;;;;;;5053570;28;20185;-73
2021/06/10 08:03:20;;;;;;;6.17;5.57;;;23.10;94.20;;;;;;5043836;28;20469;-73
2021/06/10 08:05:46;;;;;;;6.70;6.10;;;23.20;94.60;;;;;;5043487;28;20199;-73
2021/06/10 08:08:13;;;;;;;5.93;5.47;;;23.30;94.00;;;;;;5053852;28;20424;-72
2021/06/10 08:10:40;;;;;;;6.90;6.30;;;23.30;93.50;;;;;;5048773;28;20921;-73
2021/06/10 08:13:06;;;;;;;7.23;6.53;;;23.40;93.30;;;;;;5049060;28;20462;-74
2021/06/10 08:15:32;;;;;;;7.77;7.07;;;23.30;92.60;;;;;;5046257;28;20989;-73
2021/06/10 08:17:58;;;;;;;7.70;7.00;;;23.30;92.80;;;;;;5061684;28;20170;-74
2021/06/10 08:20:25;;;;;;;11.50;10.27;;;23.40;93.40;;;;;;5074702;28;20166;-74
2021/06/10 08:22:55;;;;;;;11.47;10.20;;;23.50;93.90;;;;;;5061663;28;20450;-73
2021/06/10 08:25:20;;;;;;;10.27;9.17;;;23.60;93.90;;;;;;5062307;28;20555;-73
2021/06/10 08:27:46;;;;;;;9.93;8.43;;;23.80;94.20;;;;;;5072505;28;20446;-73
2021/06/10 08:30:13;;;;;;;9.50;8.57;;;23.80;93.20;;;;;;5048029;28;20178;-73
2021/06/10 08:32:39;;;;;;;9.10;8.37;;;23.80;92.80;;;;;;5062963;28;20394;-74
2021/06/10 08:35:06;;;;;;;12.23;9.60;;;23.80;93.00;;;;;;5045706;28;20538;-72
2021/06/10 08:37:31;;;;;;;9.87;8.83;;;23.80;93.00;;;;;;5060784;28;20432;-74
2021/06/10 08:39:57;;;;;;;9.10;7.63;;;23.80;93.10;;;;;;5056563;28;20448;-74
2021/06/10 08:42:23;;;;;;;9.50;7.97;;;24.00;92.70;;;;;;5049380;28;20252;-73
2021/06/10 08:44:50;;;;;;;9.97;8.97;;;24.00;92.80;;;;;;5044747;28;20613;-73
2021/06/10 08:47:21;;;;;;;9.47;8.23;;;24.00;92.20;;;;;;5053358;28;20428;-73
2021/06/10 08:49:48;;;;;;;8.90;8.00;;;24.00;92.30;;;;;;5043857;28;20531;-72
2021/06/10 08:52:15;;;;;;;9.13;7.57;;;24.10;92.10;;;;;;5045728;28;20485;-74
2021/06/10 08:54:43;;;;;;;8.40;7.13;;;24.20;92.60;;;;;;5052656;28;20490;-74
2021/06/10 08:57:09;;;;;;;9.20;7.10;;;24.30;93.10;;;;;;5048913;28;20449;-74
2021/06/10 08:59:35;;;;;;;9.70;6.70;;;24.50;92.80;;;;;;5055843;28;20515;-74
2021/06/10 09:02:01;;;;;;;10.47;6.60;;;24.60;92.20;;;;;;5050041;28;20216;-73
2021/06/10 09:04:26;;;;;;;8.97;6.07;;;24.60;90.50;;;;;;5053100;28;20439;-74
2021/06/10 09:06:55;;;;;;;6.97;6.30;;;24.50;90.40;;;;;;5065713;28;20564;-73
2021/06/10 09:09:35;;;;;;;6.07;5.57;;;24.50;90.50;;;;;;5063668;28;20183;-74
2021/06/10 09:12:08;;;;;;;5.95;5.07;;;24.40;90.20;;;;;;5049134;28;20428;-75
2021/06/10 09:14:56;;;;;;;7.80;5.90;;;24.40;90.20;;;;;;5061552;28;20635;-74
2021/06/10 09:17:36;;;;;;;6.30;5.80;;;24.40;90.30;;;;;;5065011;28;20530;-72
2021/06/10 09:20:25;;;;;;;5.10;4.70;;;24.40;88.50;;;;;;5067513;28;20434;-73
2021/06/10 09:23:08;;;;;;;6.90;4.83;;;24.50;88.80;;;;;;5046175;28;20281;-73
2021/06/10 09:25:34;;;;;;;5.43;4.93;;;24.50;88.00;;;;;;5055276;28;20447;-73
2021/06/10 09:28:06;;;;;;;6.53;5.93;;;24.60;88.20;;;;;;5052483;28;20433;-75
2021/06/10 09:30:34;;;;;;;4.80;4.10;;;24.70;88.40;;;;;;5056643;28;20189;-72
2021/06/10 09:33:01;;;;;;;5.57;4.80;;;24.80;87.60;;;;;;5060137;28;20388;-73
2021/06/10 09:35:35;;;;;;;5.73;4.97;;;24.60;87.10;;;;;;5060495;28;20440;-73
2021/06/10 09:38:03;;;;;;;4.40;4.10;;;24.50;86.30;;;;;;5065616;28;20431;-74
2021/06/10 09:40:29;;;;;;;5.33;4.83;;;24.50;86.70;;;;;;5051422;28;20425;-74
2021/06/10 09:42:56;;;;;;;7.07;4.03;;;24.60;86.50;;;;;;5054107;28;20397;-74
2021/06/10 09:45:27;;;;;;;5.70;5.20;;;24.70;86.80;;;;;;5054786;28;20835;-74
2021/06/10 09:47:55;;;;;;;5.53;5.03;;;24.60;85.90;;;;;;5073521;28;20484;-76
2021/06/10 09:50:27;;;;;;;5.67;5.00;;;24.60;86.00;;;;;;5047940;28;20420;-75
2021/06/10 09:52:56;;;;;;;5.27;4.87;;;24.60;86.70;;;;;;5060812;28;20453;-74
2021/06/10 09:55:30;;;;;;;7.43;5.00;;;24.60;86.00;;;;;;5067902;28;20442;-75
2021/06/10 09:57:57;;;;;;;7.57;5.80;;;24.50;85.50;;;;;;5082342;28;20403;-74
2021/06/10 10:00:26;;;;;;;5.30;4.80;;;24.40;85.90;;;;;;5069198;28;20769;-74
2021/06/10 10:02:52;;;;;;;6.10;5.00;;;24.40;85.50;;;;;;5074814;28;20456;-74
2021/06/10 10:05:22;;;;;;;5.40;4.90;;;24.40;85.60;;;;;;5076082;28;20467;-74
2021/06/10 10:07:49;;;;;;;6.10;5.27;;;24.50;85.10;;;;;;5070485;28;20422;-74
2021/06/10 10:10:15;;;;;;;5.73;5.33;;;24.40;85.10;;;;;;5069075;28;20822;-75
2021/06/10 10:12:43;;;;;;;6.07;5.20;;;24.30;85.00;;;;;;5067282;28;20425;-75
2021/06/10 10:15:10;;;;;;;5.90;4.77;;;24.30;86.10;;;;;;5057118;28;20855;-74
2021/06/10 10:17:46;;;;;;;5.50;5.00;;;24.30;85.60;;;;;;5073284;28;20404;-76
2021/06/10 10:20:21;;;;;;;5.93;5.30;;;24.30;85.30;;;;;;5078457;28;21069;-75
2021/06/10 10:22:47;;;;;;;6.00;5.30;;;24.30;86.10;;;;;;5073212;28;20785;-75
2021/06/10 10:25:16;;;;;;;6.17;5.57;;;24.30;85.70;;;;;;5064638;28;20476;-74
2021/06/10 10:27:41;;;;;;;6.23;5.63;;;24.50;87.00;;;;;;5073968;28;20199;-74
2021/06/10 10:30:12;;;;;;;6.05;5.55;;;24.60;87.40;;;;;;5074862;28;20402;-74
2021/06/10 10:32:44;;;;;;;9.20;5.10;;;24.70;85.60;;;;;;5061515;28;20178;-74
2021/06/10 10:35:26;;;;;;;6.60;6.00;;;24.80;85.90;;;;;;5068633;28;20442;-73
2021/06/10 10:37:57;;;;;;;6.40;5.70;;;24.70;83.00;;;;;;5077441;28;20450;-74
2021/06/10 10:40:31;;;;;;;5.78;5.30;;;24.70;82.50;;;;;;5075793;28;20406;-75
2021/06/10 10:43:12;;;;;;;6.60;4.93;;;24.70;83.70;;;;;;5059693;28;20180;-74
2021/06/10 10:45:43;;;;;;;5.23;4.83;;;24.70;81.40;;;;;;5071031;28;20449;-75
2021/06/10 10:48:10;;;;;;;7.00;4.97;;;24.50;80.30;;;;;;5076394;28;20473;-74
2021/06/10 10:50:44;;;;;;;5.00;4.50;;;24.50;82.20;;;;;;5071112;28;20431;-75
2021/06/10 10:53:17;;;;;;;5.17;4.77;;;24.70;82.10;;;;;;5055888;28;20776;-74
2021/06/10 10:55:44;;;;;;;6.63;6.13;;;24.70;80.50;;;;;;5050474;28;20785;-74
2021/06/10 10:58:20;;;;;;;5.07;4.57;;;24.80;79.90;;;;;;5048149;28;20429;-75
2021/06/10 11:00:51;;;;;;;6.10;5.43;;;24.80;82.80;;;;;;5078243;28;20399;-75
2021/06/10 11:03:43;;;;;;;8.50;6.63;;;24.90;82.60;;;;;;5070995;28;20445;-76
2021/06/10 11:06:20;;;;;;;7.83;7.07;;;24.90;81.70;;;;;;5050830;28;20464;-75
2021/06/10 11:09:16;;;;;;;6.97;6.27;;;24.80;81.70;;;;;;5063425;28;20839;-74
2021/06/10 11:11:52;;;;;;;6.43;5.72;;;24.90;81.80;;;;;;5049461;28;20421;-75
2021/06/10 11:14:41;;;;;;;6.60;6.10;;;25.00;82.60;;;;;;5042445;28;20182;-75
2021/06/10 11:17:25;;;;;;;6.37;5.77;;;24.90;81.10;;;;;;5070416;28;20452;-75
2021/06/10 11:20:06;;;;;;;6.10;5.60;;;25.00;81.90;;;;;;5060492;28;20405;-75
2021/06/10 11:22:44;;;;;;;6.40;5.73;;;25.10;83.50;;;;;;5083993;28;20225;-76
2021/06/10 11:25:23;;;;;;;6.60;5.87;;;25.10;83.20;;;;;;5087732;28;20444;-75
2021/06/10 11:27:51;;;;;;;7.33;6.63;;;25.20;82.00;;;;;;5094093;28;20459;-75
2021/06/10 11:30:24;;;;;;;6.10;5.37;;;25.10;80.60;;;;;;5079283;28;20412;-75
2021/06/10 11:33:07;;;;;;;7.10;6.40;;;24.90;82.30;;;;;;5079896;28;20437;-76
2021/06/10 11:35:32;;;;;;;6.20;5.30;;;24.90;80.00;;;;;;5072133;28;20449;-75
2021/06/10 11:38:00;;;;;;;6.40;5.57;;;24.70;81.30;;;;;;5077183;28;20510;-76
2021/06/10 11:40:26;;;;;;;4.90;4.50;;;24.70;81.00;;;;;;5093794;28;20179;-76
2021/06/10 11:42:52;;;;;;;4.90;4.60;;;24.70;80.70;;;;;;5075463;28;20395;-76
2021/06/10 11:45:26;;;;;;;8.30;5.20;;;24.80;81.20;;;;;;5069702;28;20214;-75
2021/06/10 11:47:55;;;;;;;5.00;4.50;;;24.90;80.10;;;;;;5075402;28;20424;-75
2021/06/10 11:50:37;;;;;;;4.95;4.55;;;24.90;80.00;;;;;;5072689;28;20440;-75
2021/06/10 11:53:08;;;;;;;5.50;5.10;;;25.10;82.20;;;;;;5077581;28;20166;-74
2021/06/10 11:55:36;;;;;;;7.20;6.50;;;25.10;80.70;;;;;;5068921;28;20423;-76
2021/06/10 11:58:10;;;;;;;6.00;5.50;;;25.20;78.60;;;;;;5053415;28;20449;-75
2021/06/10 12:00:42;;;;;;;6.20;5.70;;;25.10;80.90;;;;;;5063806;28;20406;-75
2021/06/10 12:03:12;;;;;;;6.00;4.73;;;25.10;80.50;;;;;;5087800;28;20444;-75
2021/06/10 12:05:52;;;;;;;7.40;4.47;;;25.20;79.20;;;;;;5081059;28;21001;-75
2021/06/10 12:08:27;;;;;;;5.03;4.53;;;25.20;78.40;;;;;;5068738;28;20431;-75
2021/06/10 12:10:56;;;;;;;5.53;4.13;;;25.20;78.40;;;;;;5065077;28;20455;-74
2021/06/10 12:13:54;;;;;;;6.30;4.30;;;25.20;77.80;;;;;;5058939;28;20420;-75
2021/06/10 12:16:20;;;;;;;5.93;4.90;;;25.30;76.90;;;;;;5054699;28;20449;-75
2021/06/10 12:18:49;;;;;;;5.07;4.67;;;25.20;75.70;;;;;;5054166;28;20417;-75
2021/06/10 12:21:22;;;;;;;5.40;4.97;;;25.20;77.20;;;;;;5061355;28;20175;-75
2021/06/10 12:23:51;;;;;;;4.33;4.00;;;25.00;78.70;;;;;;5071096;28;20534;-76
2021/06/10 12:26:24;;;;;;;12.00;4.87;;;25.00;80.10;;;;;;5047310;28;20426;-76
2021/06/10 12:28:59;;;;;;;10.03;4.80;;;25.00;80.30;;;;;;5052756;28;20431;-75
2021/06/10 12:31:41;;;;;;;4.60;4.20;;;25.10;79.80;;;;;;5070694;28;20533;-75
2021/06/10 12:34:09;;;;;;;4.80;4.30;;;25.10;80.20;;;;;;5050074;28;20786;-75
2021/06/10 12:36:44;;;;;;;4.63;4.33;;;25.10;79.50;;;;;;5048306;28;20802;-75
2021/06/10 12:39:14;;;;;;;4.00;3.70;;;25.10;77.00;;;;;;5050388;28;20481;-75
2021/06/10 12:41:47;;;;;;;4.70;4.20;;;25.10;79.30;;;;;;5052721;28;20811;-75
2021/06/10 12:44:32;;;;;;;6.73;4.57;;;25.20;80.30;;;;;;5045066;28;20488;-75
2021/06/10 12:47:00;;;;;;;4.97;4.47;;;25.30;79.50;;;;;;5046747;28;20503;-75